sensor_id;sensor_type;location;lat;lon;timestamp;pressure;altitude;pressure_sealevel;temperature;humidity
48015;BME280;33780;51.034;7.120;2024-03-17T00:01:32;101576.91;;;7.53;68.96
48015;BME280;33780;51.034;7.120;2024-03-17T00:03:57;101579.66;;;7.51;69.01
48015;BME280;33780;51.034;7.120;2024-03-17T00:06:24;101576.13;;;7.51;69.42
48015;BME280;33780;51.034;7.120;2024-03-17T00:08:49;101570.91;;;7.49;69.54
48015;BME280;33780;51.034;7.120;2024-03-17T00:11:15;101574.63;;;7.47;69.37
48015;BME280;33780;51.034;7.120;2024-03-17T00:13:41;101564.16;;;7.44;69.26
48015;BME280;33780;51.034;7.120;2024-03-17T00:16:06;101566.03;;;7.42;69.24
48015;BME280;33780;51.034;7.120;2024-03-17T00:18:32;101560.81;;;7.40;69.30
48015;BME280;33780;51.034;7.120;2024-03-17T00:20:57;101564.53;;;7.38;69.27
48015;BME280;33780;51.034;7.120;2024-03-17T00:23:24;101556.63;;;7.36;69.26
48015;BME280;33780;51.034;7.120;2024-03-17T00:25:49;101549.66;;;7.34;69.16
48015;BME280;33780;51.034;7.120;2024-03-17T00:28:16;101550.69;;;7.31;69.36
48015;BME280;33780;51.034;7.120;2024-03-17T00:30:41;101548.13;;;7.30;69.12
48015;BME280;33780;51.034;7.120;2024-03-17T00:33:06;101546.50;;;7.27;69.30
48015;BME280;33780;51.034;7.120;2024-03-17T00:35:32;101549.16;;;7.27;69.25
48015;BME280;33780;51.034;7.120;2024-03-17T00:37:58;101552.00;;;7.24;69.14
48015;BME280;33780;51.034;7.120;2024-03-17T00:40:23;101553.16;;;7.20;68.85
48015;BME280;33780;51.034;7.120;2024-03-17T00:42:49;101553.28;;;7.17;69.28
48015;BME280;33780;51.034;7.120;2024-03-17T00:45:15;101545.41;;;7.15;69.15
48015;BME280;33780;51.034;7.120;2024-03-17T00:47:40;101545.50;;;7.14;69.41
48015;BME280;33780;51.034;7.120;2024-03-17T00:50:06;101536.75;;;7.12;69.39
48015;BME280;33780;51.034;7.120;2024-03-17T00:52:33;101543.03;;;7.11;68.83
48015;BME280;33780;51.034;7.120;2024-03-17T00:54:59;101541.50;;;7.07;69.55
48015;BME280;33780;51.034;7.120;2024-03-17T00:57:24;101529.22;;;7.04;69.26
48015;BME280;33780;51.034;7.120;2024-03-17T00:59:50;101534.53;;;7.04;68.91
48015;BME280;33780;51.034;7.120;2024-03-17T01:02:16;101531.22;;;7.01;69.06
48015;BME280;33780;51.034;7.120;2024-03-17T01:04:44;101525.00;;;7.00;69.28
48015;BME280;33780;51.034;7.120;2024-03-17T01:07:10;101526.91;;;6.98;69.36
48015;BME280;33780;51.034;7.120;2024-03-17T01:09:36;101521.66;;;6.96;69.05
48015;BME280;33780;51.034;7.120;2024-03-17T01:12:02;101520.91;;;6.94;69.06
48015;BME280;33780;51.034;7.120;2024-03-17T01:14:28;101521.94;;;6.92;69.37
48015;BME280;33780;51.034;7.120;2024-03-17T01:16:54;101518.50;;;6.90;69.05
48015;BME280;33780;51.034;7.120;2024-03-17T01:19:19;101508.91;;;6.87;69.13
48015;BME280;33780;51.034;7.120;2024-03-17T01:21:45;101509.00;;;6.86;69.85
48015;BME280;33780;51.034;7.120;2024-03-17T01:24:10;101513.56;;;6.84;69.61
48015;BME280;33780;51.034;7.120;2024-03-17T01:26:36;101503.91;;;6.81;69.48
48015;BME280;33780;51.034;7.120;2024-03-17T01:29:01;101514.56;;;6.81;69.56
48015;BME280;33780;51.034;7.120;2024-03-17T01:31:27;101506.66;;;6.80;69.09
48015;BME280;33780;51.034;7.120;2024-03-17T01:33:52;101504.97;;;6.79;69.62
48015;BME280;33780;51.034;7.120;2024-03-17T01:36:18;101505.13;;;6.76;69.53
48015;BME280;33780;51.034;7.120;2024-03-17T01:38:43;101499.81;;;6.76;69.00
48015;BME280;33780;51.034;7.120;2024-03-17T01:41:08;101503.53;;;6.73;69.05
48015;BME280;33780;51.034;7.120;2024-03-17T01:43:34;101496.50;;;6.72;69.12
48015;BME280;33780;51.034;7.120;2024-03-17T01:45:59;101490.50;;;6.69;68.85
48015;BME280;33780;51.034;7.120;2024-03-17T01:48:25;101492.47;;;6.65;69.47
48015;BME280;33780;51.034;7.120;2024-03-17T01:50:53;101487.31;;;6.62;69.52
48015;BME280;33780;51.034;7.120;2024-03-17T01:53:21;101491.84;;;6.60;69.99
48015;BME280;33780;51.034;7.120;2024-03-17T01:55:47;101489.28;;;6.58;69.33
48015;BME280;33780;51.034;7.120;2024-03-17T01:58:12;101480.53;;;6.56;69.46
48015;BME280;33780;51.034;7.120;2024-03-17T02:00:39;101491.19;;;6.56;69.43
48015;BME280;33780;51.034;7.120;2024-03-17T02:03:08;101491.34;;;6.53;69.32
48015;BME280;33780;51.034;7.120;2024-03-17T02:05:39;101484.31;;;6.52;69.32
48015;BME280;33780;51.034;7.120;2024-03-17T02:08:05;101482.63;;;6.51;69.35
48015;BME280;33780;51.034;7.120;2024-03-17T02:10:32;101473.09;;;6.47;69.11
48015;BME280;33780;51.034;7.120;2024-03-17T02:12:58;101475.81;;;6.46;69.41
48015;BME280;33780;51.034;7.120;2024-03-17T02:15:24;101475.91;;;6.44;69.40
48015;BME280;33780;51.034;7.120;2024-03-17T02:17:49;101477.81;;;6.42;69.70
48015;BME280;33780;51.034;7.120;2024-03-17T02:20:15;101478.84;;;6.40;69.48
48015;BME280;33780;51.034;7.120;2024-03-17T02:22:40;101479.09;;;6.35;69.10
48015;BME280;33780;51.034;7.120;2024-03-17T02:25:06;101470.34;;;6.33;69.05
48015;BME280;33780;51.034;7.120;2024-03-17T02:27:36;101477.56;;;6.31;69.40
48015;BME280;33780;51.034;7.120;2024-03-17T02:30:04;101481.31;;;6.27;69.25
48015;BME280;33780;51.034;7.120;2024-03-17T02:32:34;101477.88;;;6.25;68.90
48015;BME280;33780;51.034;7.120;2024-03-17T02:34:59;101482.34;;;6.24;68.94
48015;BME280;33780;51.034;7.120;2024-03-17T02:37:25;101481.66;;;6.21;68.98
48015;BME280;33780;51.034;7.120;2024-03-17T02:39:50;101478.25;;;6.19;69.29
48015;BME280;33780;51.034;7.120;2024-03-17T02:42:15;101482.88;;;6.15;69.61
48015;BME280;33780;51.034;7.120;2024-03-17T02:44:41;101482.97;;;6.14;69.11
48015;BME280;33780;51.034;7.120;2024-03-17T02:47:07;101477.81;;;6.11;69.07
48015;BME280;33780;51.034;7.120;2024-03-17T02:49:36;101491.16;;;6.09;69.46
48015;BME280;33780;51.034;7.120;2024-03-17T02:52:12;101486.00;;;6.06;69.04
48015;BME280;33780;51.034;7.120;2024-03-17T02:54:38;101487.91;;;6.04;69.50
48015;BME280;33780;51.034;7.120;2024-03-17T02:57:06;101481.06;;;6.00;69.16
48015;BME280;33780;51.034;7.120;2024-03-17T02:59:34;101483.78;;;5.98;69.00
48015;BME280;33780;51.034;7.120;2024-03-17T03:01:59;101488.44;;;5.95;69.05
48015;BME280;33780;51.034;7.120;2024-03-17T03:04:26;101488.50;;;5.93;69.43
48015;BME280;33780;51.034;7.120;2024-03-17T03:06:51;101484.19;;;5.91;69.42
48015;BME280;33780;51.034;7.120;2024-03-17T03:09:17;101479.03;;;5.88;69.10
48015;BME280;33780;51.034;7.120;2024-03-17T03:11:46;101487.06;;;5.86;69.40
48015;BME280;33780;51.034;7.120;2024-03-17T03:14:12;101479.28;;;5.83;68.56
48015;BME280;33780;51.034;7.120;2024-03-17T03:16:38;101483.81;;;5.81;69.09
48015;BME280;33780;51.034;7.120;2024-03-17T03:19:03;101480.38;;;5.79;69.03
48015;BME280;33780;51.034;7.120;2024-03-17T03:21:30;101477.81;;;5.78;68.86
48015;BME280;33780;51.034;7.120;2024-03-17T03:23:55;101473.53;;;5.75;68.93
48015;BME280;33780;51.034;7.120;2024-03-17T03:26:21;101478.13;;;5.71;69.42
48015;BME280;33780;51.034;7.120;2024-03-17T03:28:46;101474.78;;;5.68;68.95
48015;BME280;33780;51.034;7.120;2024-03-17T03:31:11;101471.34;;;5.66;69.19
48015;BME280;33780;51.034;7.120;2024-03-17T03:33:40;101467.06;;;5.63;69.22
48015;BME280;33780;51.034;7.120;2024-03-17T03:36:14;101468.19;;;5.59;69.42
48015;BME280;33780;51.034;7.120;2024-03-17T03:38:40;101464.66;;;5.59;69.63
48015;BME280;33780;51.034;7.120;2024-03-17T03:41:07;101472.72;;;5.57;69.27
48015;BME280;33780;51.034;7.120;2024-03-17T03:43:33;101470.09;;;5.56;69.12
48015;BME280;33780;51.034;7.120;2024-03-17T03:45:59;101472.84;;;5.54;69.14
48015;BME280;33780;51.034;7.120;2024-03-17T03:48:25;101463.16;;;5.53;69.04
48015;BME280;33780;51.034;7.120;2024-03-17T03:50:50;101464.19;;;5.51;68.96
48015;BME280;33780;51.034;7.120;2024-03-17T03:53:15;101473.19;;;5.48;69.38
48015;BME280;33780;51.034;7.120;2024-03-17T03:55:41;101471.63;;;5.44;69.52
48015;BME280;33780;51.034;7.120;2024-03-17T03:58:07;101474.44;;;5.41;69.57
48015;BME280;33780;51.034;7.120;2024-03-17T04:00:32;101480.75;;;5.38;69.34
48015;BME280;33780;51.034;7.120;2024-03-17T04:02:58;101482.63;;;5.36;69.37
48015;BME280;33780;51.034;7.120;2024-03-17T04:05:24;101468.50;;;5.36;69.52
48015;BME280;33780;51.034;7.120;2024-03-17T04:07:50;101485.38;;;5.35;69.66
48015;BME280;33780;51.034;7.120;2024-03-17T04:10:15;101478.44;;;5.32;68.94
48015;BME280;33780;51.034;7.120;2024-03-17T04:12:43;101469.69;;;5.30;69.33
48015;BME280;33780;51.034;7.120;2024-03-17T04:15:09;101463.59;;;5.28;69.47
48015;BME280;33780;51.034;7.120;2024-03-17T04:17:39;101468.13;;;5.26;68.86
48015;BME280;33780;51.034;7.120;2024-03-17T04:20:05;101465.66;;;5.23;69.38
48015;BME280;33780;51.034;7.120;2024-03-17T04:22:33;101458.75;;;5.19;69.65
48015;BME280;33780;51.034;7.120;2024-03-17T04:24:58;101459.78;;;5.16;69.54
48015;BME280;33780;51.034;7.120;2024-03-17T04:27:24;101464.22;;;5.16;69.67
48015;BME280;33780;51.034;7.120;2024-03-17T04:29:52;101459.09;;;5.13;69.37
48015;BME280;33780;51.034;7.120;2024-03-17T04:32:19;101451.22;;;5.11;69.43
48015;BME280;33780;51.034;7.120;2024-03-17T04:34:44;101452.22;;;5.09;70.14
48015;BME280;33780;51.034;7.120;2024-03-17T04:37:10;101445.22;;;5.08;69.68
48015;BME280;33780;51.034;7.120;2024-03-17T04:39:42;101450.59;;;5.06;69.69
48015;BME280;33780;51.034;7.120;2024-03-17T04:42:09;101447.94;;;5.06;69.52
48015;BME280;33780;51.034;7.120;2024-03-17T04:44:35;101455.03;;;5.06;69.80
48015;BME280;33780;51.034;7.120;2024-03-17T04:47:00;101449.81;;;5.04;69.82
48015;BME280;33780;51.034;7.120;2024-03-17T04:49:26;101441.88;;;5.04;69.34
48015;BME280;33780;51.034;7.120;2024-03-17T04:51:51;101446.31;;;5.04;69.48
48015;BME280;33780;51.034;7.120;2024-03-17T04:54:17;101449.91;;;5.03;69.42
48015;BME280;33780;51.034;7.120;2024-03-17T04:56:42;101442.06;;;5.00;70.08
48015;BME280;33780;51.034;7.120;2024-03-17T04:59:07;101448.31;;;4.99;69.20
48015;BME280;33780;51.034;7.120;2024-03-17T05:01:32;101437.00;;;4.95;69.70
48015;BME280;33780;51.034;7.120;2024-03-17T05:04:02;101437.09;;;4.94;69.80
48015;BME280;33780;51.034;7.120;2024-03-17T05:06:28;101434.53;;;4.92;69.70
48015;BME280;33780;51.034;7.120;2024-03-17T05:08:53;101422.28;;;4.90;69.96
48015;BME280;33780;51.034;7.120;2024-03-17T05:11:18;101421.50;;;4.88;69.97
48015;BME280;33780;51.034;7.120;2024-03-17T05:13:45;101424.25;;;4.86;70.16
48015;BME280;33780;51.034;7.120;2024-03-17T05:16:10;101424.28;;;4.84;70.26
48015;BME280;33780;51.034;7.120;2024-03-17T05:18:35;101419.91;;;4.83;69.65
48015;BME280;33780;51.034;7.120;2024-03-17T05:21:04;101419.16;;;4.81;69.86
48015;BME280;33780;51.034;7.120;2024-03-17T05:23:31;101420.94;;;4.81;70.19
48015;BME280;33780;51.034;7.120;2024-03-17T05:25:57;101427.09;;;4.81;70.37
48015;BME280;33780;51.034;7.120;2024-03-17T05:28:24;101425.38;;;4.80;70.44
48015;BME280;33780;51.034;7.120;2024-03-17T05:30:50;101426.25;;;4.81;70.78
48015;BME280;33780;51.034;7.120;2024-03-17T05:33:16;101428.91;;;4.81;70.51
48015;BME280;33780;51.034;7.120;2024-03-17T05:35:51;101429.06;;;4.78;70.83
48015;BME280;33780;51.034;7.120;2024-03-17T05:38:19;101423.59;;;4.81;71.11
48015;BME280;33780;51.034;7.120;2024-03-17T05:40:52;101425.31;;;4.82;71.40
48015;BME280;33780;51.034;7.120;2024-03-17T05:43:17;101429.75;;;4.81;71.04
48015;BME280;33780;51.034;7.120;2024-03-17T05:45:43;101430.53;;;4.83;71.40
48015;BME280;33780;51.034;7.120;2024-03-17T05:48:09;101429.59;;;4.84;71.08
48015;BME280;33780;51.034;7.120;2024-03-17T05:50:34;101430.47;;;4.85;71.50
48015;BME280;33780;51.034;7.120;2024-03-17T05:53:00;101424.25;;;4.86;71.69
48015;BME280;33780;51.034;7.120;2024-03-17T05:55:25;101426.03;;;4.85;71.75
48015;BME280;33780;51.034;7.120;2024-03-17T05:57:51;101424.25;;;4.86;71.50
48015;BME280;33780;51.034;7.120;2024-03-17T06:00:16;101424.25;;;4.86;71.22
48015;BME280;33780;51.034;7.120;2024-03-17T06:02:43;101425.09;;;4.87;71.67
48015;BME280;33780;51.034;7.120;2024-03-17T06:05:09;101430.31;;;4.88;71.57
48015;BME280;33780;51.034;7.120;2024-03-17T06:07:37;101431.25;;;4.87;71.45
48015;BME280;33780;51.034;7.120;2024-03-17T06:10:02;101431.25;;;4.87;71.72
48015;BME280;33780;51.034;7.120;2024-03-17T06:12:28;101430.31;;;4.88;71.99
48015;BME280;33780;51.034;7.120;2024-03-17T06:14:53;101424.94;;;4.90;71.67
48015;BME280;33780;51.034;7.120;2024-03-17T06:17:18;101427.50;;;4.91;71.96
48015;BME280;33780;51.034;7.120;2024-03-17T06:19:44;101423.84;;;4.94;72.20
48015;BME280;33780;51.034;7.120;2024-03-17T06:22:09;101422.03;;;4.94;72.00
48015;BME280;33780;51.034;7.120;2024-03-17T06:24:34;101421.09;;;4.95;71.93
48015;BME280;33780;51.034;7.120;2024-03-17T06:27:00;101420.16;;;4.96;72.16
48015;BME280;33780;51.034;7.120;2024-03-17T06:29:26;101410.31;;;4.98;72.32
48015;BME280;33780;51.034;7.120;2024-03-17T06:31:51;101398.78;;;4.99;71.94
48015;BME280;33780;51.034;7.120;2024-03-17T06:34:16;101401.34;;;5.01;72.52
48015;BME280;33780;51.034;7.120;2024-03-17T06:36:43;101400.41;;;5.02;72.56
48015;BME280;33780;51.034;7.120;2024-03-17T06:39:08;101395.84;;;5.05;72.78
48015;BME280;33780;51.034;7.120;2024-03-17T06:41:33;101392.06;;;5.09;73.14
48015;BME280;33780;51.034;7.120;2024-03-17T06:43:59;101385.75;;;5.12;73.12
48015;BME280;33780;51.034;7.120;2024-03-17T06:46:24;101389.88;;;5.18;73.54
48015;BME280;33780;51.034;7.120;2024-03-17T06:48:50;101391.44;;;5.22;73.22
48015;BME280;33780;51.034;7.120;2024-03-17T06:51:16;101383.22;;;5.26;73.63
48015;BME280;33780;51.034;7.120;2024-03-17T06:53:41;101389.22;;;5.30;73.46
48015;BME280;33780;51.034;7.120;2024-03-17T06:56:07;101384.53;;;5.35;74.01
48015;BME280;33780;51.034;7.120;2024-03-17T06:58:33;101382.50;;;5.40;74.34
48015;BME280;33780;51.034;7.120;2024-03-17T07:01:00;101382.34;;;5.43;75.00
48015;BME280;33780;51.034;7.120;2024-03-17T07:03:27;101378.47;;;5.49;74.49
48015;BME280;33780;51.034;7.120;2024-03-17T07:05:57;101375.47;;;5.55;75.14
48015;BME280;33780;51.034;7.120;2024-03-17T07:08:24;101364.53;;;5.61;75.12
48015;BME280;33780;51.034;7.120;2024-03-17T07:11:02;101365.91;;;5.68;75.07
48015;BME280;33780;51.034;7.120;2024-03-17T07:13:35;101354.88;;;5.75;75.54
48015;BME280;33780;51.034;7.120;2024-03-17T07:16:02;101360.69;;;5.82;75.72
48015;BME280;33780;51.034;7.120;2024-03-17T07:18:31;101361.19;;;5.89;75.59
48015;BME280;33780;51.034;7.120;2024-03-17T07:20:57;101364.41;;;5.95;75.98
48015;BME280;33780;51.034;7.120;2024-03-17T07:23:23;101359.59;;;6.02;76.00
48015;BME280;33780;51.034;7.120;2024-03-17T07:25:56;101348.91;;;6.03;76.67
48015;BME280;33780;51.034;7.120;2024-03-17T07:28:22;101366.38;;;6.07;77.15
48015;BME280;33780;51.034;7.120;2024-03-17T07:30:58;101368.00;;;6.10;77.01
48015;BME280;33780;51.034;7.120;2024-03-17T07:33:24;101370.50;;;6.13;77.44
48015;BME280;33780;51.034;7.120;2024-03-17T07:35:56;101363.19;;;6.17;77.17
48015;BME280;33780;51.034;7.120;2024-03-17T07:38:25;101355.81;;;6.22;77.45
48015;BME280;33780;51.034;7.120;2024-03-17T07:41:03;101365.22;;;6.27;77.58
48015;BME280;33780;51.034;7.120;2024-03-17T07:43:29;101363.09;;;6.34;78.20
48015;BME280;33780;51.034;7.120;2024-03-17T07:46:02;101363.75;;;6.38;78.06
48015;BME280;33780;51.034;7.120;2024-03-17T07:48:33;101359.03;;;6.43;78.02
48015;BME280;33780;51.034;7.120;2024-03-17T07:51:00;101356.13;;;6.47;77.72
48015;BME280;33780;51.034;7.120;2024-03-17T07:53:27;101357.56;;;6.53;77.90
48015;BME280;33780;51.034;7.120;2024-03-17T07:55:59;101367.81;;;6.59;78.00
48015;BME280;33780;51.034;7.120;2024-03-17T07:58:26;101365.66;;;6.65;77.81
48015;BME280;33780;51.034;7.120;2024-03-17T08:01:01;101376.78;;;6.72;77.76
48015;BME280;33780;51.034;7.120;2024-03-17T08:03:28;101376.41;;;6.78;77.63
48015;BME280;33780;51.034;7.120;2024-03-17T08:05:54;101374.19;;;6.86;77.89
48015;BME280;33780;51.034;7.120;2024-03-17T08:08:19;101375.41;;;6.95;77.79
48015;BME280;33780;51.034;7.120;2024-03-17T08:10:45;101378.47;;;7.03;77.02
48015;BME280;33780;51.034;7.120;2024-03-17T08:13:13;101388.47;;;7.14;77.14
48015;BME280;33780;51.034;7.120;2024-03-17T08:15:41;101387.91;;;7.23;77.60
48015;BME280;33780;51.034;7.120;2024-03-17T08:18:07;101389.03;;;7.33;77.30
48015;BME280;33780;51.034;7.120;2024-03-17T08:20:39;101381.34;;;7.43;76.68
48015;BME280;33780;51.034;7.120;2024-03-17T08:23:05;101390.47;;;7.53;76.69
48015;BME280;33780;51.034;7.120;2024-03-17T08:25:31;101391.72;;;7.62;76.56
48015;BME280;33780;51.034;7.120;2024-03-17T08:27:57;101383.13;;;7.71;75.63
48015;BME280;33780;51.034;7.120;2024-03-17T08:30:22;101380.94;;;7.77;75.41
48015;BME280;33780;51.034;7.120;2024-03-17T08:32:47;101382.25;;;7.84;75.46
48015;BME280;33780;51.034;7.120;2024-03-17T08:35:13;101375.78;;;7.88;74.63
48015;BME280;33780;51.034;7.120;2024-03-17T08:37:38;101376.34;;;7.94;74.84
48015;BME280;33780;51.034;7.120;2024-03-17T08:40:04;101370.72;;;7.98;74.50
48015;BME280;33780;51.034;7.120;2024-03-17T08:42:32;101377.47;;;8.04;74.26
48015;BME280;33780;51.034;7.120;2024-03-17T08:44:57;101380.59;;;8.10;73.96
48015;BME280;33780;51.034;7.120;2024-03-17T08:47:22;101379.13;;;8.19;74.68
48015;BME280;33780;51.034;7.120;2024-03-17T08:49:50;101361.69;;;8.28;74.16
48015;BME280;33780;51.034;7.120;2024-03-17T08:52:16;101357.47;;;8.38;74.11
48015;BME280;33780;51.034;7.120;2024-03-17T08:54:41;101348.88;;;8.47;73.83
48015;BME280;33780;51.034;7.120;2024-03-17T08:57:08;101337.69;;;8.55;73.33
48015;BME280;33780;51.034;7.120;2024-03-17T08:59:33;101343.38;;;8.63;72.93
48015;BME280;33780;51.034;7.120;2024-03-17T09:01:58;101343.56;;;8.72;72.21
48015;BME280;33780;51.034;7.120;2024-03-17T09:04:24;101333.25;;;8.81;72.76
48015;BME280;33780;51.034;7.120;2024-03-17T09:06:49;101333.69;;;8.87;72.40
48015;BME280;33780;51.034;7.120;2024-03-17T09:09:15;101334.94;;;8.94;72.62
48015;BME280;33780;51.034;7.120;2024-03-17T09:11:41;101339.88;;;9.00;72.27
48015;BME280;33780;51.034;7.120;2024-03-17T09:14:06;101337.75;;;9.05;72.14
48015;BME280;33780;51.034;7.120;2024-03-17T09:16:32;101326.63;;;9.12;72.07
48015;BME280;33780;51.034;7.120;2024-03-17T09:18:58;101328.78;;;9.19;71.72
48015;BME280;33780;51.034;7.120;2024-03-17T09:21:23;101331.00;;;9.25;71.76
48015;BME280;33780;51.034;7.120;2024-03-17T09:23:49;101330.56;;;9.31;72.10
48015;BME280;33780;51.034;7.120;2024-03-17T09:26:15;101322.13;;;9.37;71.89
48015;BME280;33780;51.034;7.120;2024-03-17T09:28:43;101325.09;;;9.46;71.39
48015;BME280;33780;51.034;7.120;2024-03-17T09:31:12;101327.44;;;9.50;71.19
48015;BME280;33780;51.034;7.120;2024-03-17T09:33:37;101327.97;;;9.55;71.07
48015;BME280;33780;51.034;7.120;2024-03-17T09:36:08;101320.47;;;9.60;71.40
48015;BME280;33780;51.034;7.120;2024-03-17T09:38:36;101335.31;;;9.64;70.45
48015;BME280;33780;51.034;7.120;2024-03-17T09:41:05;101343.00;;;9.69;70.01
48015;BME280;33780;51.034;7.120;2024-03-17T09:43:35;101339.28;;;9.72;70.15
48015;BME280;33780;51.034;7.120;2024-03-17T09:46:04;101342.44;;;9.77;69.66
48015;BME280;33780;51.034;7.120;2024-03-17T09:48:30;101337.63;;;9.82;69.95
48015;BME280;33780;51.034;7.120;2024-03-17T09:53:30;101336.09;;;9.90;69.93
48015;BME280;33780;51.034;7.120;2024-03-17T09:55:59;101329.44;;;9.96;69.57
48015;BME280;33780;51.034;7.120;2024-03-17T09:58:24;101325.56;;;10.00;69.41
48015;BME280;33780;51.034;7.120;2024-03-17T10:00:50;101326.97;;;10.06;69.45
48015;BME280;33780;51.034;7.120;2024-03-17T10:03:48;101326.38;;;10.13;69.89
48015;BME280;33780;51.034;7.120;2024-03-17T10:06:18;101334.06;;;10.18;69.76
48015;BME280;33780;51.034;7.120;2024-03-17T10:08:45;101339.00;;;10.24;69.27
48015;BME280;33780;51.034;7.120;2024-03-17T10:11:12;101334.16;;;10.29;69.23
48015;BME280;33780;51.034;7.120;2024-03-17T10:13:38;101337.44;;;10.33;68.37
48015;BME280;33780;51.034;7.120;2024-03-17T10:16:03;101331.84;;;10.36;68.71
48015;BME280;33780;51.034;7.120;2024-03-17T10:18:32;101328.94;;;10.39;68.79
48015;BME280;33780;51.034;7.120;2024-03-17T10:20:57;101333.97;;;10.43;69.32
48015;BME280;33780;51.034;7.120;2024-03-17T10:23:24;101336.41;;;10.46;68.83
48015;BME280;33780;51.034;7.120;2024-03-17T10:25:49;101331.56;;;10.51;67.94
48015;BME280;33780;51.034;7.120;2024-03-17T10:28:16;101345.56;;;10.55;67.92
48015;BME280;33780;51.034;7.120;2024-03-17T10:30:57;101348.75;;;10.60;67.75
48015;BME280;33780;51.034;7.120;2024-03-17T10:33:24;101337.09;;;10.61;67.31
48015;BME280;33780;51.034;7.120;2024-03-17T10:35:58;101345.59;;;10.66;67.25
48015;BME280;33780;51.034;7.120;2024-03-17T10:38:25;101347.19;;;10.69;67.00
48015;BME280;33780;51.034;7.120;2024-03-17T10:40:52;101337.09;;;10.72;66.69
48015;BME280;33780;51.034;7.120;2024-03-17T10:43:17;101345.75;;;10.76;66.20
48015;BME280;33780;51.034;7.120;2024-03-17T10:45:43;101333.00;;;10.79;65.82
48015;BME280;33780;51.034;7.120;2024-03-17T10:48:09;101334.47;;;10.83;66.88
48015;BME280;33780;51.034;7.120;2024-03-17T10:50:39;101335.69;;;10.90;66.44
48015;BME280;33780;51.034;7.120;2024-03-17T10:53:07;101335.34;;;10.95;66.00
48015;BME280;33780;51.034;7.120;2024-03-17T10:55:46;101335.72;;;11.02;66.47
48015;BME280;33780;51.034;7.120;2024-03-17T10:58:33;101334.25;;;11.09;67.02
48015;BME280;33780;51.034;7.120;2024-03-17T11:01:01;101333.91;;;11.13;66.24
48015;BME280;33780;51.034;7.120;2024-03-17T11:03:32;101337.19;;;11.17;65.17
48015;BME280;33780;51.034;7.120;2024-03-17T11:05:59;101338.53;;;11.23;65.37
48015;BME280;33780;51.034;7.120;2024-03-17T11:08:26;101335.34;;;11.29;65.10
48015;BME280;33780;51.034;7.120;2024-03-17T11:10:52;101324.19;;;11.35;65.65
48015;BME280;33780;51.034;7.120;2024-03-17T11:13:26;101321.72;;;11.43;65.69
48015;BME280;33780;51.034;7.120;2024-03-17T11:15:52;101320.28;;;11.50;65.14
48015;BME280;33780;51.034;7.120;2024-03-17T11:18:28;101320.63;;;11.57;65.04
48015;BME280;33780;51.034;7.120;2024-03-17T11:26:42;101328.28;;;11.84;64.34
48015;BME280;33780;51.034;7.120;2024-03-17T11:29:26;101318.66;;;11.92;64.23
48015;BME280;33780;51.034;7.120;2024-03-17T11:31:52;101316.31;;;11.99;64.78
48015;BME280;33780;51.034;7.120;2024-03-17T11:34:31;101308.38;;;12.08;65.10
48015;BME280;33780;51.034;7.120;2024-03-17T11:36:58;101312.22;;;12.16;64.21
48015;BME280;33780;51.034;7.120;2024-03-17T11:39:49;101316.00;;;12.24;64.97
48015;BME280;33780;51.034;7.120;2024-03-17T11:42:16;101321.56;;;12.32;63.83
48015;BME280;33780;51.034;7.120;2024-03-17T11:44:55;101311.91;;;12.41;64.88
48015;BME280;33780;51.034;7.120;2024-03-17T11:47:21;101313.34;;;12.45;63.52
48015;BME280;33780;51.034;7.120;2024-03-17T11:49:46;101305.75;;;12.50;63.28
48015;BME280;33780;51.034;7.120;2024-03-17T11:52:14;101307.19;;;12.54;63.28
48015;BME280;33780;51.034;7.120;2024-03-17T11:57:08;101294.09;;;12.61;63.18
48015;BME280;33780;51.034;7.120;2024-03-17T11:59:35;101290.16;;;12.65;62.81
48015;BME280;33780;51.034;7.120;2024-03-17T12:02:00;101291.59;;;12.69;61.69
48015;BME280;33780;51.034;7.120;2024-03-17T12:04:27;101280.59;;;12.72;62.24
48015;BME280;33780;51.034;7.120;2024-03-17T12:06:57;101280.34;;;12.75;62.94
48015;BME280;33780;51.034;7.120;2024-03-17T12:09:26;101276.69;;;12.76;62.23
48015;BME280;33780;51.034;7.120;2024-03-17T12:12:01;101277.41;;;12.78;62.47
48015;BME280;33780;51.034;7.120;2024-03-17T12:14:28;101275.56;;;12.79;61.14
48015;BME280;33780;51.034;7.120;2024-03-17T12:16:58;101268.22;;;12.81;61.90
48015;BME280;33780;51.034;7.120;2024-03-17T12:19:24;101261.16;;;12.80;61.38
48015;BME280;33780;51.034;7.120;2024-03-17T12:21:52;101265.66;;;12.79;61.23
48015;BME280;33780;51.034;7.120;2024-03-17T12:24:20;101261.00;;;12.81;60.97
48015;BME280;33780;51.034;7.120;2024-03-17T12:26:47;101257.34;;;12.82;60.32
48015;BME280;33780;51.034;7.120;2024-03-17T12:29:24;101256.34;;;12.83;61.41
48015;BME280;33780;51.034;7.120;2024-03-17T12:31:57;101250.84;;;12.85;62.24
48015;BME280;33780;51.034;7.120;2024-03-17T12:34:25;101248.16;;;12.85;61.50
48015;BME280;33780;51.034;7.120;2024-03-17T12:36:54;101242.78;;;12.85;61.08
48015;BME280;33780;51.034;7.120;2024-03-17T12:39:22;101245.19;;;12.88;61.47
48015;BME280;33780;51.034;7.120;2024-03-17T12:44:29;101245.06;;;12.89;61.20
48015;BME280;33780;51.034;7.120;2024-03-17T12:46:59;101238.56;;;12.92;62.05
48015;BME280;33780;51.034;7.120;2024-03-17T12:49:30;101232.97;;;12.95;62.52
48015;BME280;33780;51.034;7.120;2024-03-17T12:51:56;101228.56;;;12.94;61.64
48015;BME280;33780;51.034;7.120;2024-03-17T12:54:24;101216.84;;;12.95;61.39
48015;BME280;33780;51.034;7.120;2024-03-17T12:56:51;101216.28;;;13.01;61.25
48015;BME280;33780;51.034;7.120;2024-03-17T12:59:42;101215.03;;;13.05;61.73
48015;BME280;33780;51.034;7.120;2024-03-17T13:02:27;101211.34;;;13.06;60.67
48015;BME280;33780;51.034;7.120;2024-03-17T13:05:18;101203.63;;;13.13;61.24
48015;BME280;33780;51.034;7.120;2024-03-17T13:07:46;101195.56;;;13.13;61.28
48015;BME280;33780;51.034;7.120;2024-03-17T13:10:13;101192.72;;;13.14;61.43
48015;BME280;33780;51.034;7.120;2024-03-17T13:12:39;101193.44;;;13.16;61.17